Time;durP1;ratioP1;P1;durP2;ratioP2;P2;SDS_P1;SDS_P2;PMS_P1;PMS_P2;Temp;Humidity;BMP_temperature;BMP_pressure;BME280_temperature;BME280_humidity;BME280_pressure;Samples;Min_cycle;Max_cycle;Signal;HPM_P1;HPM_P2
2024/01/13 00:01:21;;;;;;;0.10;0.10;;;;;;;;;;5089929;28;20430;-70
2024/01/13 00:03:47;;;;;;;0.10;0.10;;;;;;;;;;5090038;28;20046;-72
2024/01/13 00:06:13;;;;;;;0.10;0.10;;;;;;;;;;5089796;28;20387;-70
2024/01/13 00:08:39;;;;;;;0.10;0.10;;;;;;;;;;5089438;28;20046;-70
2024/01/13 00:11:05;;;;;;;0.10;0.10;;;;;;;;;;5089484;28;20387;-72
2024/01/13 00:13:30;;;;;;;0.10;0.10;;;;;;;;;;5090004;28;20039;-70
2024/01/13 00:15:56;;;;;;;2.30;2.10;;;;;;;;;;5090044;28;20107;-70
2024/01/13 00:18:22;;;;;;;0.10;0.10;;;;;;;;;;5089748;28;20020;-71
2024/01/13 00:20:47;;;;;;;0.10;0.10;;;;;;;;;;5089978;28;20030;-71
2024/01/13 00:23:13;;;;;;;0.10;0.10;;;;;;;;;;5089930;28;20107;-69
2024/01/13 00:25:38;;;;;;;0.10;0.10;;;;;;;;;;5089656;28;20498;-70
2024/01/13 00:28:04;;;;;;;0.08;0.08;;;;;;;;;;5089349;28;20039;-70
2024/01/13 00:30:30;;;;;;;0.10;0.10;;;;;;;;;;5089983;28;20032;-71
2024/01/13 00:32:55;;;;;;;0.10;0.10;;;;;;;;;;5089554;28;20032;-70
2024/01/13 00:35:21;;;;;;;0.32;0.32;;;;;;;;;;5089408;28;20379;-70
2024/01/13 00:37:46;;;;;;;0.10;0.10;;;;;;;;;;5093427;28;20043;-70
2024/01/13 00:40:14;;;;;;;0.10;0.10;;;;;;;;;;5093413;28;20020;-70
2024/01/13 00:42:43;;;;;;;0.10;0.10;;;;;;;;;;5093568;28;20040;-70
2024/01/13 00:45:09;;;;;;;0.10;0.10;;;;;;;;;;5093909;28;20032;-70
2024/01/13 00:47:34;;;;;;;0.10;0.10;;;;;;;;;;5092101;28;20039;-71
2024/01/13 00:50:00;;;;;;;0.10;0.10;;;;;;;;;;5093274;28;20161;-71
2024/01/13 00:52:26;;;;;;;0.10;0.10;;;;;;;;;;5093190;28;20112;-70
2024/01/13 00:54:52;;;;;;;0.10;0.10;;;;;;;;;;5092212;28;20040;-70
2024/01/13 00:57:18;;;;;;;0.10;0.10;;;;;;;;;;5093329;28;20024;-71
2024/01/13 00:59:43;;;;;;;0.10;0.10;;;;;;;;;;5093336;28;20024;-71
2024/01/13 01:02:09;;;;;;;2.03;1.95;;;;;;;;;;5093139;28;20097;-71
2024/01/13 01:04:34;;;;;;;0.10;0.10;;;;;;;;;;5093305;28;20125;-70
2024/01/13 01:07:00;;;;;;;0.10;0.10;;;;;;;;;;5093178;28;20442;-70
2024/01/13 01:09:26;;;;;;;0.00;0.00;;;;;;;;;;5093107;28;20372;-71
2024/01/13 01:11:51;;;;;;;0.00;0.00;;;;;;;;;;5093339;28;20107;-71
2024/01/13 01:14:17;;;;;;;0.00;0.00;;;;;;;;;;5093142;28;20117;-71
2024/01/13 01:16:42;;;;;;;0.10;0.10;;;;;;;;;;5093114;28;20108;-72
2024/01/13 01:19:08;;;;;;;0.10;0.10;;;;;;;;;;5095793;28;20450;-70
2024/01/13 01:21:33;;;;;;;0.10;0.10;;;;;;;;;;5097168;28;20410;-69
2024/01/13 01:23:59;;;;;;;0.10;0.10;;;;;;;;;;5095836;28;20433;-70
2024/01/13 01:26:25;;;;;;;2.35;0.50;;;;;;;;;;5096727;28;20029;-69
2024/01/13 01:28:50;;;;;;;0.00;0.00;;;;;;;;;;5096732;28;20489;-70
2024/01/13 01:31:16;;;;;;;0.10;0.10;;;;;;;;;;5096684;28;20093;-70
2024/01/13 01:33:42;;;;;;;0.10;0.10;;;;;;;;;;5095474;28;20040;-71
2024/01/13 01:36:08;;;;;;;0.10;0.10;;;;;;;;;;5096614;28;20029;-70
2024/01/13 01:38:33;;;;;;;0.10;0.10;;;;;;;;;;5096418;28;20024;-71
2024/01/13 01:40:59;;;;;;;0.13;0.13;;;;;;;;;;5096560;28;20020;-69
2024/01/13 01:43:24;;;;;;;0.08;0.08;;;;;;;;;;5095994;28;20066;-71
2024/01/13 01:45:51;;;;;;;0.32;0.32;;;;;;;;;;5096403;28;20020;-71
2024/01/13 01:48:17;;;;;;;0.00;0.00;;;;;;;;;;5096235;28;20040;-72
2024/01/13 01:50:43;;;;;;;0.10;0.10;;;;;;;;;;5096559;28;20044;-72
2024/01/13 01:53:11;;;;;;;0.10;0.10;;;;;;;;;;5096170;28;20039;-71
2024/01/13 01:55:37;;;;;;;0.10;0.10;;;;;;;;;;5096407;28;20046;-70
2024/01/13 01:58:03;;;;;;;0.10;0.10;;;;;;;;;;5096068;28;20020;-71
2024/01/13 02:00:29;;;;;;;0.10;0.10;;;;;;;;;;5096204;28;20027;-71
2024/01/13 02:02:55;;;;;;;0.08;0.08;;;;;;;;;;5094787;28;20127;-71
2024/01/13 02:05:21;;;;;;;0.10;0.10;;;;;;;;;;5095936;28;20020;-71
2024/01/13 02:07:50;;;;;;;0.10;0.10;;;;;;;;;;5096398;28;20082;-70
2024/01/13 02:10:19;;;;;;;0.10;0.10;;;;;;;;;;5095921;28;20502;-71
2024/01/13 02:12:44;;;;;;;0.30;0.30;;;;;;;;;;5096235;28;20047;-71
2024/01/13 02:15:10;;;;;;;0.13;0.13;;;;;;;;;;5095881;28;20028;-70
2024/01/13 02:17:36;;;;;;;0.30;0.30;;;;;;;;;;5096175;28;20387;-71
2024/01/13 02:20:05;;;;;;;0.25;0.25;;;;;;;;;;5095682;28;20020;-70
2024/01/13 02:22:33;;;;;;;0.10;0.10;;;;;;;;;;5095665;28;20066;-71
2024/01/13 02:25:03;;;;;;;0.10;0.10;;;;;;;;;;5095681;28;20475;-70
2024/01/13 02:27:29;;;;;;;0.10;0.10;;;;;;;;;;5095614;28;20153;-71
2024/01/13 02:29:54;;;;;;;0.35;0.35;;;;;;;;;;5094710;28;20107;-69
2024/01/13 02:32:20;;;;;;;0.10;0.10;;;;;;;;;;5095453;28;20523;-70
2024/01/13 02:34:46;;;;;;;0.10;0.10;;;;;;;;;;5095368;28;20028;-70
2024/01/13 02:37:11;;;;;;;0.13;0.13;;;;;;;;;;5095409;28;20032;-70
2024/01/13 02:39:37;;;;;;;0.10;0.10;;;;;;;;;;5095365;28;20024;-70
2024/01/13 02:42:03;;;;;;;0.35;0.32;;;;;;;;;;5095358;28;20046;-70
2024/01/13 02:44:29;;;;;;;0.68;0.68;;;;;;;;;;5095067;28;20050;-69
2024/01/13 02:46:55;;;;;;;0.25;0.25;;;;;;;;;;5095551;28;20399;-70
2024/01/13 02:49:20;;;;;;;0.40;0.40;;;;;;;;;;5094840;28;20044;-69
2024/01/13 02:51:46;;;;;;;0.08;0.08;;;;;;;;;;5095236;28;20026;-69
2024/01/13 02:54:12;;;;;;;0.00;0.00;;;;;;;;;;5095046;28;20090;-70
2024/01/13 02:56:37;;;;;;;0.10;0.10;;;;;;;;;;5095013;28;20020;-69
2024/01/13 02:59:03;;;;;;;0.10;0.10;;;;;;;;;;5094964;28;20036;-69
2024/01/13 03:01:30;;;;;;;0.10;0.10;;;;;;;;;;5095007;28;20451;-70
2024/01/13 03:03:55;;;;;;;0.00;0.00;;;;;;;;;;5093579;28;20035;-69
2024/01/13 03:06:24;;;;;;;1.08;1.02;;;;;;;;;;5095056;28;20548;-69
2024/01/13 03:08:49;;;;;;;0.00;0.00;;;;;;;;;;5095181;28;20031;-69
2024/01/13 03:11:15;;;;;;;0.10;0.10;;;;;;;;;;5094812;28;20016;-72
2024/01/13 03:13:41;;;;;;;0.20;0.20;;;;;;;;;;5093509;28;20028;-70
2024/01/13 03:16:06;;;;;;;0.10;0.10;;;;;;;;;;5094646;28;20038;-70
2024/01/13 03:18:32;;;;;;;0.10;0.10;;;;;;;;;;5094522;28;20051;-69
2024/01/13 03:20:58;;;;;;;0.10;0.10;;;;;;;;;;5094741;28;20035;-70
2024/01/13 03:23:23;;;;;;;7.10;6.55;;;;;;;;;;5094585;28;20035;-70
2024/01/13 03:25:49;;;;;;;0.10;0.10;;;;;;;;;;5094491;28;20039;-70
2024/01/13 03:28:14;;;;;;;0.43;0.43;;;;;;;;;;5094567;28;20107;-72
2024/01/13 03:30:40;;;;;;;0.00;0.00;;;;;;;;;;5094363;28;20111;-71
2024/01/13 03:33:05;;;;;;;0.10;0.10;;;;;;;;;;5092843;28;20032;-70
2024/01/13 03:35:31;;;;;;;0.10;0.10;;;;;;;;;;5094253;28;20036;-70
2024/01/13 03:37:57;;;;;;;0.10;0.10;;;;;;;;;;5094397;28;20031;-71
2024/01/13 03:40:22;;;;;;;0.10;0.10;;;;;;;;;;5094231;28;20028;-71
2024/01/13 03:42:48;;;;;;;0.10;0.10;;;;;;;;;;5094138;28;20031;-71
2024/01/13 03:45:14;;;;;;;0.10;0.10;;;;;;;;;;5094178;28;20409;-71
2024/01/13 03:47:40;;;;;;;0.10;0.10;;;;;;;;;;5093973;28;20024;-70
2024/01/13 03:50:07;;;;;;;0.10;0.10;;;;;;;;;;5093860;28;20048;-70
2024/01/13 03:52:32;;;;;;;0.00;0.00;;;;;;;;;;5094438;28;20024;-69
2024/01/13 03:54:58;;;;;;;0.10;0.10;;;;;;;;;;5094038;28;20024;-71
2024/01/13 03:57:24;;;;;;;2.50;2.40;;;;;;;;;;5093910;28;20039;-70
2024/01/13 03:59:50;;;;;;;0.00;0.00;;;;;;;;;;5093838;28;20361;-70
2024/01/13 04:02:15;;;;;;;0.00;0.00;;;;;;;;;;5090847;28;20089;-71
2024/01/13 04:04:41;;;;;;;0.10;0.10;;;;;;;;;;5090030;28;20046;-70
2024/01/13 04:07:07;;;;;;;0.28;0.28;;;;;;;;;;5090073;28;20375;-72
2024/01/13 04:09:33;;;;;;;0.10;0.10;;;;;;;;;;5089869;28;20032;-71
2024/01/13 04:11:59;;;;;;;0.00;0.00;;;;;;;;;;5088809;28;20088;-71
2024/01/13 04:14:24;;;;;;;0.08;0.08;;;;;;;;;;5089800;28;20032;-70
2024/01/13 04:16:50;;;;;;;0.20;0.20;;;;;;;;;;5089479;28;20474;-71
2024/01/13 04:19:15;;;;;;;0.10;0.10;;;;;;;;;;5089742;28;20046;-71
2024/01/13 04:21:41;;;;;;;0.10;0.10;;;;;;;;;;5089908;28;20028;-69
2024/01/13 04:24:08;;;;;;;0.20;0.20;;;;;;;;;;5089982;28;20543;-71
2024/01/13 04:26:34;;;;;;;0.10;0.10;;;;;;;;;;5088403;28;20036;-74
2024/01/13 04:28:59;;;;;;;0.10;0.10;;;;;;;;;;5089764;28;20382;-70
2024/01/13 04:31:25;;;;;;;0.00;0.00;;;;;;;;;;5089706;28;20427;-70
2024/01/13 04:33:51;;;;;;;0.10;0.10;;;;;;;;;;5089597;28;20036;-70
2024/01/13 04:36:16;;;;;;;0.00;0.00;;;;;;;;;;5089571;28;20028;-71
2024/01/13 04:38:42;;;;;;;0.10;0.10;;;;;;;;;;5090135;28;20036;-70
2024/01/13 04:41:08;;;;;;;0.10;0.10;;;;;;;;;;5089806;28;20114;-69
2024/01/13 04:43:35;;;;;;;0.10;0.10;;;;;;;;;;5089652;28;20032;-69
2024/01/13 04:46:00;;;;;;;0.10;0.10;;;;;;;;;;5089595;28;20039;-70
2024/01/13 04:48:26;;;;;;;0.10;0.10;;;;;;;;;;5088902;28;20032;-70
2024/01/13 04:50:52;;;;;;;0.10;0.10;;;;;;;;;;5089147;28;20058;-70
2024/01/13 04:53:17;;;;;;;0.10;0.10;;;;;;;;;;5090591;28;20032;-71
2024/01/13 04:55:43;;;;;;;0.10;0.10;;;;;;;;;;5093638;28;20426;-70
2024/01/13 04:58:09;;;;;;;0.10;0.10;;;;;;;;;;5093302;28;20053;-71
2024/01/13 05:00:35;;;;;;;0.03;0.03;;;;;;;;;;5093342;28;20715;-71
2024/01/13 05:03:01;;;;;;;0.10;0.10;;;;;;;;;;5093540;28;20086;-70
2024/01/13 05:05:26;;;;;;;0.10;0.10;;;;;;;;;;5093482;28;20047;-75
2024/01/13 05:07:52;;;;;;;0.10;0.10;;;;;;;;;;5093373;28;20062;-70
2024/01/13 05:10:17;;;;;;;0.10;0.10;;;;;;;;;;5093801;28;20035;-70
2024/01/13 05:12:43;;;;;;;0.10;0.10;;;;;;;;;;5093619;28;20070;-69
2024/01/13 05:15:09;;;;;;;0.00;0.00;;;;;;;;;;5092906;28;20024;-72
2024/01/13 05:17:34;;;;;;;0.10;0.10;;;;;;;;;;5093502;28;20035;-71
2024/01/13 05:20:00;;;;;;;0.10;0.10;;;;;;;;;;5092132;28;20051;-72
2024/01/13 05:22:25;;;;;;;0.10;0.10;;;;;;;;;;5072777;28;20036;-72
2024/01/13 05:24:51;;;;;;;0.10;0.10;;;;;;;;;;5072492;28;20016;-70
2024/01/13 05:27:16;;;;;;;0.10;0.10;;;;;;;;;;5072611;28;20115;-70
2024/01/13 05:29:42;;;;;;;0.10;0.10;;;;;;;;;;5072504;28;20020;-72
2024/01/13 05:32:08;;;;;;;0.10;0.10;;;;;;;;;;5072985;28;20107;-73
2024/01/13 05:34:34;;;;;;;0.10;0.10;;;;;;;;;;5072216;28;20063;-70
2024/01/13 05:36:59;;;;;;;0.10;0.10;;;;;;;;;;5071576;28;20028;-70
2024/01/13 05:39:25;;;;;;;0.00;0.00;;;;;;;;;;5071197;28;20021;-70
2024/01/13 05:41:50;;;;;;;0.10;0.10;;;;;;;;;;5072441;28;20039;-70
2024/01/13 05:44:16;;;;;;;0.10;0.10;;;;;;;;;;5070451;28;20032;-69
2024/01/13 05:46:41;;;;;;;0.10;0.10;;;;;;;;;;5071817;28;20035;-69
2024/01/13 05:49:08;;;;;;;0.00;0.00;;;;;;;;;;5089984;28;20484;-70
2024/01/13 05:51:35;;;;;;;0.10;0.10;;;;;;;;;;5091858;28;20027;-70
2024/01/13 05:54:00;;;;;;;0.10;0.10;;;;;;;;;;5091615;28;20028;-70
2024/01/13 05:56:26;;;;;;;0.10;0.10;;;;;;;;;;5088628;28;20031;-69
2024/01/13 05:58:52;;;;;;;0.10;0.10;;;;;;;;;;5091218;28;20032;-70
2024/01/13 06:01:17;;;;;;;0.00;0.00;;;;;;;;;;5090674;28;20065;-70
2024/01/13 06:03:43;;;;;;;0.10;0.10;;;;;;;;;;5092264;28;20403;-71
2024/01/13 06:06:09;;;;;;;0.13;0.13;;;;;;;;;;5088544;28;20489;-71
2024/01/13 06:08:34;;;;;;;0.10;0.10;;;;;;;;;;5091685;28;20035;-71
2024/01/13 06:11:00;;;;;;;0.10;0.10;;;;;;;;;;5089300;28;20044;-72
2024/01/13 06:13:26;;;;;;;0.08;0.08;;;;;;;;;;5090893;28;20036;-72
2024/01/13 06:15:51;;;;;;;0.00;0.00;;;;;;;;;;5091796;28;20546;-70
2024/01/13 06:18:17;;;;;;;0.10;0.10;;;;;;;;;;5091535;28;20745;-71
2024/01/13 06:20:42;;;;;;;2.35;1.48;;;;;;;;;;5091870;28;20032;-71
2024/01/13 06:23:08;;;;;;;0.30;0.30;;;;;;;;;;5091541;28;20043;-71
2024/01/13 06:25:33;;;;;;;0.10;0.10;;;;;;;;;;5092190;28;20524;-70
2024/01/13 06:27:59;;;;;;;0.10;0.10;;;;;;;;;;5089509;28;20032;-71
2024/01/13 06:30:25;;;;;;;0.40;0.40;;;;;;;;;;5089463;28;20035;-72
2024/01/13 06:32:51;;;;;;;0.10;0.10;;;;;;;;;;5091310;28;20036;-70
2024/01/13 06:35:16;;;;;;;0.10;0.10;;;;;;;;;;5091771;28;20032;-72
2024/01/13 06:37:42;;;;;;;0.10;0.10;;;;;;;;;;5091353;28;20034;-71
2024/01/13 06:40:08;;;;;;;0.00;0.00;;;;;;;;;;5091679;28;20062;-72
2024/01/13 06:42:34;;;;;;;0.10;0.10;;;;;;;;;;5091415;28;20036;-71
2024/01/13 06:45:00;;;;;;;0.20;0.20;;;;;;;;;;5091178;28;20024;-69
2024/01/13 06:47:36;;;;;;;0.03;0.03;;;;;;;;;;5083341;28;20024;-70
2024/01/13 06:50:03;;;;;;;0.10;0.10;;;;;;;;;;5084356;28;20052;-70
2024/01/13 06:52:29;;;;;;;0.10;0.10;;;;;;;;;;5086435;28;20467;-72
2024/01/13 06:54:54;;;;;;;0.10;0.10;;;;;;;;;;5090513;28;20028;-69
2024/01/13 06:57:20;;;;;;;0.10;0.10;;;;;;;;;;5090855;28;20024;-70
2024/01/13 06:59:46;;;;;;;0.10;0.10;;;;;;;;;;5089942;28;20043;-71
2024/01/13 07:02:12;;;;;;;0.10;0.10;;;;;;;;;;5091335;28;20115;-74
2024/01/13 07:04:38;;;;;;;0.20;0.20;;;;;;;;;;5089484;28;20020;-70
2024/01/13 07:07:04;;;;;;;0.10;0.10;;;;;;;;;;5090695;28;20051;-70
2024/01/13 07:09:30;;;;;;;0.10;0.10;;;;;;;;;;5086362;28;20028;-72
2024/01/13 07:11:56;;;;;;;0.00;0.00;;;;;;;;;;5089758;28;20085;-72
2024/01/13 07:14:21;;;;;;;0.20;0.20;;;;;;;;;;5091198;28;20063;-70
2024/01/13 07:16:47;;;;;;;0.10;0.10;;;;;;;;;;5089346;28;20536;-71
2024/01/13 07:19:13;;;;;;;0.10;0.10;;;;;;;;;;5089493;28;20020;-71
2024/01/13 07:21:39;;;;;;;0.10;0.10;;;;;;;;;;5087569;28;20066;-71
2024/01/13 07:24:06;;;;;;;0.10;0.10;;;;;;;;;;5090855;28;20040;-71
2024/01/13 07:26:32;;;;;;;0.10;0.10;;;;;;;;;;5084351;28;20031;-70
2024/01/13 07:28:57;;;;;;;0.00;0.00;;;;;;;;;;5083101;28;20474;-71
2024/01/13 07:31:23;;;;;;;0.10;0.10;;;;;;;;;;5083348;28;20769;-76
2024/01/13 07:33:49;;;;;;;3.50;1.20;;;;;;;;;;5085658;28;20035;-72
2024/01/13 07:36:14;;;;;;;0.00;0.00;;;;;;;;;;5087917;28;20480;-71
2024/01/13 07:38:40;;;;;;;0.10;0.10;;;;;;;;;;5085731;28;20018;-74
2024/01/13 07:41:09;;;;;;;0.10;0.10;;;;;;;;;;5090590;28;20032;-71
2024/01/13 07:43:34;;;;;;;0.10;0.10;;;;;;;;;;5090633;28;20046;-71
2024/01/13 07:46:00;;;;;;;0.10;0.10;;;;;;;;;;5083404;28;20479;-71
2024/01/13 07:48:25;;;;;;;0.10;0.10;;;;;;;;;;5090437;28;20048;-70
2024/01/13 07:50:51;;;;;;;0.10;0.10;;;;;;;;;;5083793;28;20045;-71
2024/01/13 07:53:18;;;;;;;0.10;0.10;;;;;;;;;;5083232;28;20079;-72
2024/01/13 07:55:44;;;;;;;1.42;1.40;;;;;;;;;;5087984;28;20071;-71
2024/01/13 07:58:10;;;;;;;0.10;0.10;;;;;;;;;;5087779;28;20103;-72
2024/01/13 08:00:35;;;;;;;0.30;0.30;;;;;;;;;;5088191;28;20032;-74
2024/01/13 08:03:01;;;;;;;0.10;0.10;;;;;;;;;;5088428;28;20040;-72
2024/01/13 08:05:26;;;;;;;0.80;0.80;;;;;;;;;;5089005;28;20031;-70
2024/01/13 08:07:52;;;;;;;16.35;8.57;;;;;;;;;;5090309;28;20032;-70
2024/01/13 08:10:17;;;;;;;0.10;0.10;;;;;;;;;;5086046;28;20379;-70
2024/01/13 08:12:43;;;;;;;0.30;0.30;;;;;;;;;;5077225;28;20493;-74
2024/01/13 08:15:09;;;;;;;0.05;0.05;;;;;;;;;;5076421;28;20070;-71
2024/01/13 08:17:35;;;;;;;0.10;0.10;;;;;;;;;;5070375;28;20354;-70
2024/01/13 08:20:04;;;;;;;0.10;0.10;;;;;;;;;;5090198;28;20020;-72
2024/01/13 08:22:30;;;;;;;0.20;0.20;;;;;;;;;;5081063;28;20024;-71
2024/01/13 08:24:56;;;;;;;0.30;0.30;;;;;;;;;;5080177;28;20016;-70
2024/01/13 08:27:21;;;;;;;0.20;0.20;;;;;;;;;;5085052;28;20032;-70
2024/01/13 08:29:47;;;;;;;0.15;0.15;;;;;;;;;;5081031;28;20040;-72
2024/01/13 08:32:13;;;;;;;0.13;0.13;;;;;;;;;;5079534;28;20037;-73
2024/01/13 08:34:38;;;;;;;0.20;0.20;;;;;;;;;;5069442;28;20020;-70
2024/01/13 08:37:05;;;;;;;0.32;0.32;;;;;;;;;;5068969;28;20032;-70
2024/01/13 08:39:32;;;;;;;0.30;0.30;;;;;;;;;;5076479;28;20027;-71
2024/01/13 08:41:57;;;;;;;0.55;0.55;;;;;;;;;;5080200;28;20031;-74
2024/01/13 08:44:23;;;;;;;0.10;0.10;;;;;;;;;;5088054;28;20032;-70
2024/01/13 08:46:48;;;;;;;0.38;0.38;;;;;;;;;;5084411;28;20039;-71
2024/01/13 08:49:14;;;;;;;0.10;0.10;;;;;;;;;;5081917;28;20044;-72
2024/01/13 08:51:40;;;;;;;0.15;0.15;;;;;;;;;;5084092;28;20054;-71
2024/01/13 08:54:06;;;;;;;0.50;0.50;;;;;;;;;;5088405;28;20028;-71
2024/01/13 08:56:34;;;;;;;0.10;0.10;;;;;;;;;;5082895;28;20060;-71
2024/01/13 08:59:01;;;;;;;0.20;0.20;;;;;;;;;;5069108;28;20090;-73
2024/01/13 09:01:26;;;;;;;0.20;0.20;;;;;;;;;;5069087;28;20533;-71
2024/01/13 09:03:52;;;;;;;0.40;0.40;;;;;;;;;;5078068;28;20028;-71
2024/01/13 09:06:17;;;;;;;0.10;0.10;;;;;;;;;;5089336;28;20028;-71
2024/01/13 09:08:43;;;;;;;0.50;0.40;;;;;;;;;;5089947;28;20416;-72
2024/01/13 09:11:09;;;;;;;0.10;0.10;;;;;;;;;;5088888;28;20027;-71
2024/01/13 09:13:34;;;;;;;0.10;0.10;;;;;;;;;;5089403;28;20430;-71
2024/01/13 09:16:00;;;;;;;0.10;0.10;;;;;;;;;;5088998;28;20054;-70
2024/01/13 09:18:26;;;;;;;0.20;0.20;;;;;;;;;;5088130;28;20031;-71
2024/01/13 09:20:51;;;;;;;0.10;0.10;;;;;;;;;;5087216;28;20032;-70
2024/01/13 09:23:17;;;;;;;0.13;0.13;;;;;;;;;;5087598;28;20570;-70
2024/01/13 09:25:42;;;;;;;0.60;0.60;;;;;;;;;;5088036;28;20021;-71
2024/01/13 09:28:09;;;;;;;0.10;0.10;;;;;;;;;;5087298;28;20026;-72
2024/01/13 09:30:35;;;;;;;1.48;0.82;;;;;;;;;;5086517;28;20020;-70
2024/01/13 09:33:01;;;;;;;0.20;0.20;;;;;;;;;;5086161;28;20078;-71
2024/01/13 09:35:30;;;;;;;0.73;0.73;;;;;;;;;;5087168;28;20028;-73
2024/01/13 09:37:57;;;;;;;0.40;0.40;;;;;;;;;;5087064;28;20024;-71
2024/01/13 09:40:23;;;;;;;0.57;0.57;;;;;;;;;;5088580;28;20027;-71
2024/01/13 09:42:52;;;;;;;0.20;0.20;;;;;;;;;;5090354;28;20032;-70
2024/01/13 09:45:19;;;;;;;0.68;0.60;;;;;;;;;;5093528;28;20024;-70
2024/01/13 09:47:46;;;;;;;3.60;1.58;;;;;;;;;;5091639;28;20115;-71
2024/01/13 09:50:11;;;;;;;0.20;0.20;;;;;;;;;;5092732;28;20177;-71
2024/01/13 09:52:38;;;;;;;0.30;0.30;;;;;;;;;;5092933;28;20118;-70
2024/01/13 09:55:05;;;;;;;0.20;0.20;;;;;;;;;;5091116;28;20070;-72
2024/01/13 09:57:31;;;;;;;0.20;0.20;;;;;;;;;;5091425;28;20059;-70
2024/01/13 09:59:57;;;;;;;0.17;0.17;;;;;;;;;;5092114;28;20040;-70
2024/01/13 10:02:23;;;;;;;0.20;0.20;;;;;;;;;;5092605;28;20016;-73
2024/01/13 10:04:49;;;;;;;0.20;0.20;;;;;;;;;;5092171;28;20028;-71
2024/01/13 10:07:14;;;;;;;0.10;0.10;;;;;;;;;;5092291;28;20085;-72
2024/01/13 10:09:40;;;;;;;0.30;0.30;;;;;;;;;;5092331;28;20032;-71
2024/01/13 10:12:07;;;;;;;0.17;0.15;;;;;;;;;;5091414;28;20116;-70
2024/01/13 10:14:35;;;;;;;0.75;0.75;;;;;;;;;;5090677;28;20040;-70
2024/01/13 10:17:04;;;;;;;0.10;0.10;;;;;;;;;;5091630;28;20101;-72
2024/01/13 10:19:33;;;;;;;0.10;0.10;;;;;;;;;;5090764;28;20036;-70
2024/01/13 10:21:59;;;;;;;7.18;2.30;;;;;;;;;;5091864;28;20081;-71
2024/01/13 10:24:25;;;;;;;0.10;0.10;;;;;;;;;;5091971;28;20035;-70
2024/01/13 10:26:50;;;;;;;0.73;0.50;;;;;;;;;;5091831;28;20032;-70
2024/01/13 10:29:19;;;;;;;0.40;0.40;;;;;;;;;;5092042;28;20024;-71
2024/01/13 10:31:45;;;;;;;0.10;0.10;;;;;;;;;;5091913;28;20036;-70
2024/01/13 10:34:11;;;;;;;0.10;0.10;;;;;;;;;;5091654;28;20032;-72
2024/01/13 10:36:38;;;;;;;0.32;0.32;;;;;;;;;;5091960;28;20371;-71
2024/01/13 10:39:04;;;;;;;0.10;0.10;;;;;;;;;;5091371;28;20362;-70
2024/01/13 10:41:30;;;;;;;0.80;0.65;;;;;;;;;;5091764;28;20036;-70
2024/01/13 10:43:56;;;;;;;0.30;0.30;;;;;;;;;;5091662;28;20089;-70
2024/01/13 10:46:23;;;;;;;0.20;0.20;;;;;;;;;;5090197;28;20416;-70
2024/01/13 10:48:51;;;;;;;0.80;0.70;;;;;;;;;;5089927;28;20483;-70
2024/01/13 10:51:31;;;;;;;0.20;0.20;;;;;;;;;;5090680;28;20071;-71
2024/01/13 10:53:58;;;;;;;0.25;0.25;;;;;;;;;;5091151;28;20468;-71
2024/01/13 10:56:25;;;;;;;0.20;0.20;;;;;;;;;;5091380;28;20048;-70
2024/01/13 10:58:52;;;;;;;0.88;0.80;;;;;;;;;;5090877;28;20024;-71
2024/01/13 11:01:18;;;;;;;0.43;0.43;;;;;;;;;;5091103;28;20028;-70
2024/01/13 11:03:44;;;;;;;0.10;0.10;;;;;;;;;;5090144;28;20035;-71
2024/01/13 11:06:10;;;;;;;0.20;0.20;;;;;;;;;;5091136;28;20050;-71
2024/01/13 11:08:36;;;;;;;2.45;0.68;;;;;;;;;;5091404;28;20063;-70
2024/01/13 11:11:02;;;;;;;0.10;0.10;;;;;;;;;;5091251;28;20024;-69
2024/01/13 11:13:31;;;;;;;0.20;0.20;;;;;;;;;;5089591;28;20051;-71
2024/01/13 11:16:04;;;;;;;0.65;0.52;;;;;;;;;;5089995;28;20046;-71
2024/01/13 11:18:37;;;;;;;0.47;0.47;;;;;;;;;;5090652;28;20035;-69
2024/01/13 11:21:06;;;;;;;0.20;0.20;;;;;;;;;;5091025;28;20020;-71
2024/01/13 11:23:49;;;;;;;0.38;0.38;;;;;;;;;;5092098;28;20085;-69
2024/01/13 11:26:32;;;;;;;2.60;2.40;;;;;;;;;;5090905;28;20084;-71
2024/01/13 11:28:58;;;;;;;0.50;0.50;;;;;;;;;;5090087;28;20028;-73
2024/01/13 11:31:36;;;;;;;0.20;0.20;;;;;;;;;;5078664;28;20463;-71
2024/01/13 11:34:03;;;;;;;0.22;0.22;;;;;;;;;;5068129;28;20028;-70
2024/01/13 11:36:32;;;;;;;3.85;0.68;;;;;;;;;;5068077;28;20032;-70
2024/01/13 11:38:58;;;;;;;1.08;1.00;;;;;;;;;;5067881;28;20033;-70
2024/01/13 11:41:44;;;;;;;2.58;2.47;;;;;;;;;;5067877;28;20021;-70
2024/01/13 11:44:10;;;;;;;0.20;0.20;;;;;;;;;;5067319;28;20210;-75
2024/01/13 11:46:38;;;;;;;0.38;0.38;;;;;;;;;;5067902;28;20561;-70
2024/01/13 11:49:04;;;;;;;0.20;0.20;;;;;;;;;;5068999;28;20032;-69
2024/01/13 11:51:48;;;;;;;0.50;0.50;;;;;;;;;;5076819;28;20066;-72
2024/01/13 11:54:14;;;;;;;0.10;0.10;;;;;;;;;;5073435;28;20036;-72
2024/01/13 11:56:39;;;;;;;0.10;0.10;;;;;;;;;;5072878;28;20048;-71
2024/01/13 11:59:05;;;;;;;0.13;0.13;;;;;;;;;;5067329;28;20510;-71
2024/01/13 12:01:31;;;;;;;0.10;0.10;;;;;;;;;;5067591;28;20082;-71
2024/01/13 12:03:57;;;;;;;0.20;0.20;;;;;;;;;;5067616;28;20068;-72
2024/01/13 12:06:23;;;;;;;0.30;0.30;;;;;;;;;;5066462;28;20134;-72
2024/01/13 12:08:53;;;;;;;0.88;0.57;;;;;;;;;;5067055;28;20025;-70
2024/01/13 12:11:18;;;;;;;0.20;0.20;;;;;;;;;;5066302;28;20056;-71
2024/01/13 12:13:44;;;;;;;0.20;0.20;;;;;;;;;;5066226;28;20079;-72
2024/01/13 12:16:10;;;;;;;0.20;0.20;;;;;;;;;;5067244;28;20052;-72
2024/01/13 12:18:36;;;;;;;0.25;0.25;;;;;;;;;;5066200;28;20064;-71
2024/01/13 12:21:02;;;;;;;0.10;0.10;;;;;;;;;;5084273;28;20032;-70
2024/01/13 12:23:28;;;;;;;0.20;0.20;;;;;;;;;;5089891;28;20073;-72
2024/01/13 12:25:53;;;;;;;0.60;0.50;;;;;;;;;;5089978;28;20027;-70
2024/01/13 12:28:22;;;;;;;3.38;1.70;;;;;;;;;;5089782;28;20027;-70
2024/01/13 12:30:51;;;;;;;0.10;0.10;;;;;;;;;;5089329;28;20123;-71
2024/01/13 12:33:17;;;;;;;;;;;;;;;;;;5089473;28;20028;-70
2024/01/13 12:35:43;;;;;;;1.00;0.55;;;;;;;;;;5082538;28;19931;-69
2024/01/13 12:38:12;;;;;;;0.10;0.10;;;;;;;;;;5088689;28;20028;-70
2024/01/13 12:40:38;;;;;;;0.32;0.32;;;;;;;;;;5089645;28;20020;-70
2024/01/13 12:43:04;;;;;;;0.43;0.40;;;;;;;;;;5087585;28;20043;-70
2024/01/13 12:45:31;;;;;;;0.98;0.63;;;;;;;;;;5090153;28;20135;-71
2024/01/13 12:47:57;;;;;;;1.30;0.85;;;;;;;;;;5088915;28;20480;-71
2024/01/13 12:50:23;;;;;;;1.80;0.98;;;;;;;;;;5087757;28;20047;-70
2024/01/13 12:52:49;;;;;;;1.10;0.80;;;;;;;;;;5089130;28;20028;-71
2024/01/13 12:55:15;;;;;;;0.40;0.38;;;;;;;;;;5088356;28;20024;-70
2024/01/13 12:57:41;;;;;;;12.40;3.67;;;;;;;;;;5089145;28;20032;-70
2024/01/13 13:00:07;;;;;;;0.20;0.20;;;;;;;;;;5088789;28;20032;-71
2024/01/13 13:02:34;;;;;;;0.55;0.50;;;;;;;;;;5063980;28;20103;-70
2024/01/13 13:05:00;;;;;;;0.55;0.40;;;;;;;;;;5072406;28;20476;-72
2024/01/13 13:07:27;;;;;;;0.30;0.30;;;;;;;;;;5082044;28;20058;-73
2024/01/13 13:09:53;;;;;;;15.38;6.03;;;;;;;;;;5088451;28;20091;-71
2024/01/13 13:12:21;;;;;;;0.75;0.65;;;;;;;;;;5088674;28;20020;-70
2024/01/13 13:14:47;;;;;;;0.80;0.45;;;;;;;;;;5089782;28;20028;-70
2024/01/13 13:17:13;;;;;;;2.22;1.40;;;;;;;;;;5092146;28;20418;-70
2024/01/13 13:19:39;;;;;;;1.40;0.90;;;;;;;;;;5089891;28;20480;-70
2024/01/13 13:22:04;;;;;;;0.20;0.20;;;;;;;;;;5090616;28;20027;-69
2024/01/13 13:24:31;;;;;;;0.28;0.28;;;;;;;;;;5091623;28;20072;-71
2024/01/13 13:26:57;;;;;;;0.20;0.20;;;;;;;;;;5092672;28;20028;-71
2024/01/13 13:29:22;;;;;;;0.60;0.60;;;;;;;;;;5092824;28;20077;-70
2024/01/13 13:31:48;;;;;;;0.20;0.20;;;;;;;;;;5092578;28;20031;-69
2024/01/13 13:34:14;;;;;;;0.95;0.68;;;;;;;;;;5092741;28;20043;-71
2024/01/13 13:36:40;;;;;;;0.20;0.20;;;;;;;;;;5091391;28;20064;-70
2024/01/13 13:39:05;;;;;;;0.77;0.77;;;;;;;;;;5092639;28;20258;-69
2024/01/13 13:41:31;;;;;;;0.98;0.93;;;;;;;;;;5092447;28;20119;-70
2024/01/13 13:43:56;;;;;;;0.40;0.40;;;;;;;;;;5092958;28;20040;-70
2024/01/13 13:46:22;;;;;;;3.15;2.78;;;;;;;;;;5074300;28;20387;-70
2024/01/13 13:48:48;;;;;;;0.32;0.32;;;;;;;;;;5072167;28;20021;-70
2024/01/13 13:51:13;;;;;;;0.88;0.80;;;;;;;;;;5070971;28;20087;-70
2024/01/13 13:53:39;;;;;;;0.50;0.50;;;;;;;;;;5072274;28;20041;-71
2024/01/13 13:56:05;;;;;;;0.20;0.20;;;;;;;;;;5072018;28;20033;-70
2024/01/13 13:58:31;;;;;;;0.47;0.47;;;;;;;;;;5071027;28;20071;-70
2024/01/13 14:00:57;;;;;;;2.92;1.75;;;;;;;;;;5071838;28;20067;-70
2024/01/13 14:03:22;;;;;;;0.30;0.30;;;;;;;;;;5074700;28;20515;-70
2024/01/13 14:05:48;;;;;;;0.20;0.20;;;;;;;;;;5077446;28;20426;-70
2024/01/13 14:08:14;;;;;;;1.08;0.60;;;;;;;;;;5071788;28;20025;-71
2024/01/13 14:10:40;;;;;;;0.20;0.20;;;;;;;;;;5072108;28;20060;-71
2024/01/13 14:13:06;;;;;;;1.00;0.68;;;;;;;;;;5072250;28;20486;-70
2024/01/13 14:15:31;;;;;;;0.75;0.75;;;;;;;;;;5072013;28;20138;-71
2024/01/13 14:17:57;;;;;;;0.95;0.68;;;;;;;;;;5071993;28;20028;-70
2024/01/13 14:20:23;;;;;;;0.30;0.30;;;;;;;;;;5070660;28;20111;-69
2024/01/13 14:22:49;;;;;;;9.98;1.42;;;;;;;;;;5070817;28;20464;-69
2024/01/13 14:25:15;;;;;;;21.92;4.28;;;;;;;;;;5069921;28;20614;-71
2024/01/13 14:27:40;;;;;;;0.20;0.20;;;;;;;;;;5069375;28;20032;-70
2024/01/13 14:30:07;;;;;;;0.30;0.30;;;;;;;;;;5070175;28;20427;-71
2024/01/13 14:32:32;;;;;;;0.20;0.20;;;;;;;;;;5070414;28;20040;-70
2024/01/13 14:34:59;;;;;;;7.03;0.70;;;;;;;;;;5070348;28;20059;-71
2024/01/13 14:37:25;;;;;;;0.40;0.40;;;;;;;;;;5070904;28;20028;-71